createdAt,value
2022-10-08T00:01:55.122Z,100463.97
2022-10-08T00:04:57.936Z,100461.75
2022-10-08T00:08:00.574Z,100457.88
2022-10-08T00:11:05.025Z,100462.00
2022-10-08T00:14:09.240Z,100457.63
2022-10-08T00:17:13.272Z,100456.94
2022-10-08T00:20:15.993Z,100457.91
2022-10-08T00:23:18.727Z,100452.28
2022-10-08T00:26:23.899Z,100448.16
2022-10-08T00:29:26.536Z,100452.41
2022-10-08T00:32:30.594Z,100455.78
2022-10-08T00:35:37.480Z,100445.78
2022-10-08T00:38:40.564Z,100449.31
2022-10-08T00:41:44.287Z,100444.78
2022-10-08T00:44:54.767Z,100445.09
2022-10-08T00:47:59.177Z,100438.88
2022-10-08T00:51:02.521Z,100435.09
2022-10-08T00:54:05.554Z,100433.72
2022-10-08T00:57:08.453Z,100425.22
2022-10-08T01:00:12.195Z,100432.97
2022-10-08T01:03:16.289Z,100430.69
2022-10-08T01:06:24.521Z,100422.69
2022-10-08T01:09:30.952Z,100422.72
2022-10-08T01:12:38.439Z,100428.38
2022-10-08T01:15:43.197Z,100426.63
2022-10-08T01:18:53.943Z,100428.94
2022-10-08T01:22:00.864Z,100428.50
2022-10-08T01:25:26.238Z,100423.38
2022-10-08T01:28:32.626Z,100432.00
2022-10-08T01:31:38.223Z,100422.16
2022-10-08T01:34:43.308Z,100426.81
2022-10-08T01:37:46.726Z,100426.31
2022-10-08T01:40:52.166Z,100426.53
2022-10-08T01:44:01.328Z,100424.16
2022-10-08T01:47:07.030Z,100431.72
2022-10-08T01:50:13.353Z,100425.38
2022-10-08T01:53:17.698Z,100422.84
2022-10-08T01:56:23.148Z,100425.84
2022-10-08T01:59:31.201Z,100425.31
2022-10-08T02:02:34.085Z,100443.06
2022-10-08T02:05:38.314Z,100427.00
2022-10-08T02:08:41.003Z,100432.88
2022-10-08T02:11:43.722Z,100441.22
2022-10-08T02:14:49.081Z,100445.44
2022-10-08T02:17:56.777Z,100431.75
2022-10-08T02:21:00.809Z,100439.72
2022-10-08T02:24:06.402Z,100442.72
2022-10-08T02:27:09.821Z,100440.59
2022-10-08T02:30:14.288Z,100437.72
2022-10-08T02:33:17.890Z,100441.28
2022-10-08T02:36:23.989Z,100442.25
2022-10-08T02:39:27.364Z,100447.88
2022-10-08T02:42:31.876Z,100446.28
2022-10-08T02:45:39.121Z,100448.16
2022-10-08T02:48:42.894Z,100456.63
2022-10-08T02:51:49.324Z,100452.75
2022-10-08T02:54:52.889Z,100462.75
2022-10-08T02:57:59.286Z,100455.22
2022-10-08T03:01:08.651Z,100457.53
2022-10-08T03:04:14.746Z,100457.41
2022-10-08T03:07:17.860Z,100457.41
2022-10-08T03:10:22.045Z,100459.81
2022-10-08T03:13:25.476Z,100458.56
2022-10-08T03:16:33.400Z,100448.97
2022-10-08T03:19:36.382Z,100457.06
2022-10-08T03:22:39.372Z,100456.84
2022-10-08T03:25:42.084Z,100457.50
2022-10-08T03:28:44.990Z,100455.88
2022-10-08T03:31:49.847Z,100455.03
2022-10-08T03:34:52.496Z,100451.38
2022-10-08T03:37:55.206Z,100442.53
2022-10-08T03:40:58.802Z,100445.28
2022-10-08T03:44:01.483Z,100447.16
2022-10-08T03:47:05.559Z,100445.34
2022-10-08T03:50:08.643Z,100458.38
2022-10-08T03:53:11.315Z,100452.31
2022-10-08T03:56:15.542Z,100454.31
2022-10-08T03:59:18.271Z,100456.69
2022-10-08T04:02:22.345Z,100459.16
2022-10-08T04:05:25.086Z,100455.75
2022-10-08T04:08:28.119Z,100458.56
2022-10-08T04:11:31.116Z,100455.06
2022-10-08T04:14:33.849Z,100449.19
2022-10-08T04:17:37.855Z,100451.47
2022-10-08T04:20:40.644Z,100445.06
2022-10-08T04:23:43.957Z,100447.97
2022-10-08T04:26:46.624Z,100448.81
2022-10-08T04:29:49.291Z,100447.41
2022-10-08T04:32:53.369Z,100441.56
2022-10-08T04:36:00.174Z,100442.63
2022-10-08T04:39:03.256Z,100447.97
2022-10-08T04:42:06.094Z,100451.41
2022-10-08T04:45:09.146Z,100443.25
2022-10-08T04:48:13.296Z,100449.84
2022-10-08T04:51:16.305Z,100449.25
2022-10-08T04:54:18.979Z,100451.91
2022-10-08T04:57:21.639Z,100453.75
2022-10-08T05:00:24.353Z,100457.63
2022-10-08T05:03:28.397Z,100455.13
2022-10-08T05:06:31.834Z,100460.59
2022-10-08T05:09:34.511Z,100458.75
2022-10-08T05:12:37.264Z,100456.97
2022-10-08T05:15:39.958Z,100462.53
2022-10-08T05:18:44.099Z,100464.72
2022-10-08T05:21:46.858Z,100460.81
2022-10-08T05:24:49.475Z,100460.63
2022-10-08T05:27:52.201Z,100455.94
2022-10-08T05:31:00.338Z,100465.66
2022-10-08T05:34:04.835Z,100475.09
2022-10-08T05:37:07.513Z,100473.56
2022-10-08T05:40:10.519Z,100480.94
2022-10-08T05:43:13.239Z,100483.00
2022-10-08T05:46:16.481Z,100479.75
2022-10-08T05:49:22.602Z,100477.06
2022-10-08T05:52:27.100Z,100471.94
2022-10-08T05:55:30.048Z,100471.72
2022-10-08T05:58:33.947Z,100476.75
2022-10-08T06:01:36.663Z,100472.28
2022-10-08T06:04:40.771Z,100474.25
2022-10-08T06:07:43.484Z,100476.84
2022-10-08T06:10:49.630Z,100474.72
2022-10-08T06:13:53.103Z,100472.03
2022-10-08T06:16:55.848Z,100468.97
2022-10-08T06:19:59.924Z,100473.53
2022-10-08T06:23:02.639Z,100465.31
2022-10-08T06:26:06.265Z,100466.13
2022-10-08T06:29:10.058Z,100468.97
2022-10-08T06:32:12.761Z,100476.63
2022-10-08T06:35:16.873Z,100479.47
2022-10-08T06:38:19.548Z,100479.13
2022-10-08T06:41:22.620Z,100471.47
2022-10-08T06:44:25.396Z,100473.88
2022-10-08T06:47:28.095Z,100469.28
2022-10-08T06:50:32.217Z,100468.19
2022-10-08T06:53:35.326Z,100466.06
2022-10-08T06:56:38.627Z,100465.56
2022-10-08T06:59:41.277Z,100466.06
2022-10-08T07:02:44.612Z,100471.56
2022-10-08T07:05:48.976Z,100472.84
2022-10-08T07:08:52.711Z,100460.25
2022-10-08T07:11:55.425Z,100446.88
2022-10-08T07:14:58.197Z,100450.84
2022-10-08T07:18:00.961Z,100458.03
2022-10-08T07:21:05.918Z,100448.91
2022-10-08T07:24:08.600Z,100446.63
2022-10-08T07:27:11.354Z,100443.25
2022-10-08T07:30:14.169Z,100436.66
2022-10-08T07:33:16.887Z,100446.81
2022-10-08T07:36:22.174Z,100443.25
2022-10-08T07:39:24.825Z,100434.63
2022-10-08T07:42:27.585Z,100441.69
2022-10-08T07:45:31.037Z,100440.72
2022-10-08T07:48:34.381Z,100444.09
2022-10-08T07:51:38.601Z,100434.97
2022-10-08T07:54:42.674Z,100426.34
2022-10-08T07:57:45.496Z,100425.94
2022-10-08T08:00:48.261Z,100432.72
2022-10-08T08:03:53.759Z,100439.31
2022-10-08T08:06:57.817Z,100438.47
2022-10-08T08:10:00.492Z,100428.50
2022-10-08T08:13:03.116Z,100418.31
2022-10-08T08:16:07.587Z,100414.38
2022-10-08T08:19:10.370Z,100406.75
2022-10-08T08:22:14.414Z,100399.16
2022-10-08T08:25:17.088Z,100402.06
2022-10-08T08:28:19.800Z,100400.75
2022-10-08T08:31:23.528Z,100399.63
2022-10-08T08:34:26.319Z,100398.56
2022-10-08T08:37:30.389Z,100392.53
2022-10-08T08:40:33.051Z,100383.81
2022-10-08T08:43:35.727Z,100385.88
2022-10-08T08:46:41.108Z,100379.19
2022-10-08T08:49:45.342Z,100377.06
2022-10-08T08:52:49.595Z,100365.06
2022-10-08T08:55:55.127Z,100374.06
2022-10-08T08:59:00.462Z,100370.78
2022-10-08T09:02:07.052Z,100362.25
2022-10-08T09:05:13.705Z,100363.13
2022-10-08T09:08:19.895Z,100371.41
2022-10-08T09:11:24.091Z,100358.56
2022-10-08T09:14:31.984Z,100362.47
2022-10-08T09:17:36.449Z,100358.81
2022-10-08T09:20:40.424Z,100343.19
2022-10-08T09:23:45.164Z,100350.09
2022-10-08T09:26:47.788Z,100338.91
2022-10-08T09:29:50.531Z,100330.19
2022-10-08T09:32:54.174Z,100332.81
2022-10-08T09:35:56.833Z,100333.09
2022-10-08T09:39:01.246Z,100328.56
2022-10-08T09:42:14.771Z,100326.41
2022-10-08T09:45:32.345Z,100316.00
2022-10-08T09:48:35.155Z,100311.97
2022-10-08T09:51:37.864Z,100303.34
2022-10-08T09:54:46.451Z,100304.47
2022-10-08T09:57:51.227Z,100299.09
2022-10-08T10:00:58.500Z,100299.91
2022-10-08T10:04:02.278Z,100301.56
2022-10-08T10:07:05.586Z,100290.94
2022-10-08T10:10:15.904Z,100287.72
2022-10-08T10:13:20.856Z,100278.69
2022-10-08T10:16:25.642Z,100271.38
2022-10-08T10:19:31.576Z,100276.94
2022-10-08T10:22:37.396Z,100270.88
2022-10-08T10:25:45.637Z,100268.88
2022-10-08T10:28:51.744Z,100261.59
2022-10-08T10:31:58.144Z,100252.13
2022-10-08T10:35:04.870Z,100255.44
2022-10-08T10:38:11.125Z,100259.69
2022-10-08T10:41:18.613Z,100250.00
2022-10-08T10:44:24.961Z,100233.44
2022-10-08T10:47:32.233Z,100226.00
2022-10-08T10:50:38.736Z,100230.53
2022-10-08T10:53:49.442Z,100221.81
2022-10-08T10:56:57.588Z,100221.44
2022-10-08T11:00:04.626Z,100217.31
2022-10-08T11:03:11.353Z,100214.94
2022-10-08T11:06:24.354Z,100214.63
2022-10-08T11:09:33.145Z,100206.94
2022-10-08T11:12:40.278Z,100204.56
2022-10-08T11:15:45.762Z,100206.81
2022-10-08T11:18:51.009Z,100200.03
2022-10-08T11:22:00.400Z,100194.97
2022-10-08T11:25:11.513Z,100192.91
2022-10-08T11:28:21.438Z,100187.03
2022-10-08T11:31:28.794Z,100178.53
2022-10-08T11:34:33.970Z,100178.28
2022-10-08T11:37:40.072Z,100161.34
2022-10-08T11:40:46.309Z,100173.13
2022-10-08T11:43:54.357Z,100168.72
2022-10-08T11:47:29.447Z,100178.47
2022-10-08T11:50:33.258Z,100174.69
2022-10-08T11:53:35.920Z,100170.66
2022-10-08T11:56:40.051Z,100168.69
2022-10-08T11:59:45.025Z,100155.69
2022-10-08T12:02:53.085Z,100149.00
2022-10-08T12:05:57.056Z,100152.84
2022-10-08T12:09:00.414Z,100156.63
2022-10-08T12:12:13.436Z,100148.34
2022-10-08T12:15:33.476Z,100139.00
2022-10-08T12:18:46.726Z,100142.06
2022-10-08T12:21:51.070Z,100129.34
2022-10-08T12:24:55.319Z,100135.28
2022-10-08T12:28:12.900Z,100130.56
2022-10-08T12:31:20.067Z,100125.66
2022-10-08T12:34:24.140Z,100116.28
2022-10-08T12:37:41.532Z,100124.72
2022-10-08T12:40:47.404Z,100109.38
2022-10-08T12:43:55.243Z,100110.06
2022-10-08T12:47:03.186Z,100114.75
2022-10-08T12:50:24.412Z,100121.25
2022-10-08T12:53:27.272Z,100112.28
2022-10-08T12:56:30.980Z,100113.94
2022-10-08T12:59:33.839Z,100100.09
2022-10-08T13:02:38.212Z,100096.50
2022-10-08T13:05:43.706Z,100095.31
2022-10-08T13:08:50.047Z,100102.97
2022-10-08T13:11:57.172Z,100092.91
2022-10-08T13:15:05.264Z,100088.63
2022-10-08T13:18:14.902Z,100083.50
2022-10-08T13:21:26.705Z,100087.03
2022-10-08T13:24:34.028Z,100080.28
2022-10-08T13:27:38.543Z,100069.84
2022-10-08T13:30:41.737Z,100068.56
2022-10-08T13:33:44.465Z,100068.56
2022-10-08T13:36:49.996Z,100073.69
2022-10-08T13:39:53.893Z,100066.38
2022-10-08T13:42:58.485Z,100061.41
2022-10-08T13:46:01.547Z,100060.06
2022-10-08T13:49:04.197Z,100050.78
2022-10-08T13:52:11.556Z,100053.13
2022-10-08T13:55:19.322Z,100051.16
2022-10-08T13:58:22.019Z,100046.25
2022-10-08T14:01:24.755Z,100047.81
2022-10-08T14:04:27.515Z,100042.03
2022-10-08T14:07:33.828Z,100036.41
2022-10-08T14:10:36.459Z,100041.56
2022-10-08T14:13:39.096Z,100034.56
2022-10-08T14:16:42.231Z,100027.47
2022-10-08T14:19:45.284Z,100037.91
2022-10-08T14:22:49.496Z,100034.22
2022-10-08T14:25:52.472Z,100032.03
2022-10-08T14:28:55.192Z,100038.75
2022-10-08T14:31:57.862Z,100031.09
2022-10-08T14:35:00.579Z,100038.72
2022-10-08T14:38:04.673Z,100033.34
2022-10-08T14:41:07.688Z,100032.91
2022-10-08T14:44:10.412Z,100035.25
2022-10-08T14:47:13.155Z,100025.81
2022-10-08T14:50:17.238Z,100032.22
2022-10-08T14:53:21.361Z,100028.19
2022-10-08T14:56:24.084Z,100025.19
2022-10-08T14:59:27.321Z,100019.63
2022-10-08T15:02:30.082Z,100024.66
2022-10-08T15:05:33.406Z,100026.94
2022-10-08T15:08:38.682Z,100018.63
2022-10-08T15:11:41.490Z,100007.06
2022-10-08T15:14:44.136Z,100016.84
2022-10-08T15:17:47.147Z,100024.06
2022-10-08T15:20:54.489Z,100018.00
2022-10-08T15:23:58.509Z,100019.00
2022-10-08T15:27:01.127Z,100017.22
2022-10-08T15:30:04.115Z,100013.94
2022-10-08T15:33:06.793Z,100027.63
2022-10-08T15:36:19.552Z,100023.69
2022-10-08T15:39:23.816Z,100013.25
2022-10-08T15:42:26.554Z,100020.06
2022-10-08T15:45:29.241Z,100022.53
2022-10-08T15:48:31.924Z,100021.44
2022-10-08T15:51:34.664Z,100020.91
2022-10-08T15:54:38.875Z,100024.59
2022-10-08T15:57:42.114Z,100033.09
2022-10-08T16:00:44.913Z,100028.81
2022-10-08T16:03:48.778Z,100040.75
2022-10-08T16:06:51.775Z,100038.06
2022-10-08T16:09:55.845Z,100034.00
2022-10-08T16:12:58.542Z,100035.75
2022-10-08T16:16:02.177Z,100032.19
2022-10-08T16:19:06.057Z,100036.66
2022-10-08T16:22:08.836Z,100021.38
2022-10-08T16:25:12.881Z,100027.16
2022-10-08T16:28:15.557Z,100018.84
2022-10-08T16:31:18.750Z,100025.47
2022-10-08T16:34:22.385Z,100024.78
2022-10-08T16:37:25.146Z,100023.88
2022-10-08T16:40:29.142Z,100025.69
2022-10-08T16:43:31.864Z,100023.53
2022-10-08T16:46:36.252Z,100025.09
2022-10-08T16:49:40.165Z,100032.41
2022-10-08T16:52:42.861Z,100022.75
2022-10-08T16:55:46.892Z,100020.13
2022-10-08T16:58:52.052Z,100022.09
2022-10-08T17:01:56.175Z,100024.03
2022-10-08T17:04:58.987Z,100023.78
2022-10-08T17:08:01.743Z,100022.53
2022-10-08T17:11:06.555Z,100022.00
2022-10-08T17:14:10.340Z,100019.34
2022-10-08T17:17:13.185Z,100025.03
2022-10-08T17:20:15.956Z,100022.69
2022-10-08T17:23:18.613Z,100025.44
2022-10-08T17:26:23.369Z,100022.75
2022-10-08T17:29:26.028Z,100018.88
2022-10-08T17:32:28.943Z,100020.09
2022-10-08T17:35:31.690Z,100028.56
2022-10-08T17:38:34.453Z,100021.00
2022-10-08T17:41:39.472Z,100014.75
2022-10-08T17:44:42.192Z,100016.28
2022-10-08T17:47:45.261Z,100027.31
2022-10-08T17:50:47.964Z,100021.03
2022-10-08T17:53:54.298Z,100019.63
2022-10-08T17:56:58.703Z,100018.22
2022-10-08T18:00:01.365Z,100017.69
2022-10-08T18:03:04.097Z,100022.34
2022-10-08T18:06:07.357Z,100022.31
2022-10-08T18:09:12.781Z,100017.09
2022-10-08T18:12:16.815Z,100023.06
2022-10-08T18:15:19.505Z,100016.69
2022-10-08T18:18:22.233Z,100018.06
2022-10-08T18:21:25.057Z,100020.19
2022-10-08T18:24:27.770Z,100020.22
2022-10-08T18:27:31.784Z,100019.94
2022-10-08T18:30:36.534Z,100019.03
2022-10-08T18:33:39.868Z,100020.53
2022-10-08T18:36:42.631Z,100017.44
2022-10-08T18:39:45.268Z,100018.03
2022-10-08T18:42:49.778Z,100025.59
2022-10-08T18:45:52.767Z,100008.72
2022-10-08T18:48:55.661Z,100012.84
2022-10-08T18:51:58.654Z,100006.69
2022-10-08T18:55:01.503Z,100010.44
2022-10-08T18:58:05.486Z,100014.47
2022-10-08T19:01:08.604Z,100016.91
2022-10-08T19:04:13.220Z,100012.97
2022-10-08T19:07:15.950Z,100014.09
2022-10-08T19:10:18.675Z,100011.84
2022-10-08T19:13:22.797Z,100007.28
2022-10-08T19:16:25.689Z,100007.44
2022-10-08T19:19:30.822Z,100016.63
2022-10-08T19:22:33.528Z,100010.16
2022-10-08T19:25:36.216Z,100005.69
2022-10-08T19:28:41.029Z,100007.94
2022-10-08T19:31:43.861Z,100004.94
2022-10-08T19:34:46.505Z,100009.09
2022-10-08T19:37:49.209Z,100012.41
2022-10-08T19:40:51.941Z,100006.66
2022-10-08T19:43:56.860Z,100005.00
2022-10-08T19:46:59.590Z,100010.47
2022-10-08T19:50:02.289Z,100007.91
2022-10-08T19:53:05.059Z,100004.81
2022-10-08T19:56:09.988Z,100002.34
2022-10-08T19:59:14.464Z,99998.91
2022-10-08T20:02:17.291Z,99995.16
2022-10-08T20:05:20.073Z,100007.53
2022-10-08T20:08:22.926Z,99997.13
2022-10-08T20:11:26.343Z,100002.25
2022-10-08T20:14:30.509Z,99994.44
2022-10-08T20:17:33.193Z,99994.31
2022-10-08T20:20:35.942Z,99999.03
2022-10-08T20:23:39.237Z,99985.75
2022-10-08T20:26:42.497Z,99987.41
2022-10-08T20:29:46.564Z,99986.81
2022-10-08T20:32:49.430Z,99981.91
2022-10-08T20:35:52.382Z,99984.72
2022-10-08T20:38:55.267Z,99980.22
2022-10-08T20:41:58.411Z,99975.75
2022-10-08T20:45:02.539Z,99969.50
2022-10-08T20:48:05.355Z,99973.16
2022-10-08T20:51:09.043Z,99973.34
2022-10-08T20:54:13.078Z,99981.97
2022-10-08T20:57:15.817Z,99973.84
2022-10-08T21:00:19.835Z,99979.00
2022-10-08T21:03:22.503Z,99965.47
2022-10-08T21:06:26.179Z,99970.00
2022-10-08T21:09:28.885Z,99972.59
2022-10-08T21:12:32.308Z,99960.03
2022-10-08T21:15:36.308Z,99966.47
2022-10-08T21:18:39.351Z,99970.16
2022-10-08T21:21:42.327Z,99968.03
2022-10-08T21:24:45.272Z,99970.13
2022-10-08T21:27:47.953Z,99975.22
2022-10-08T21:30:55.196Z,99963.13
2022-10-08T21:33:58.187Z,99966.47
2022-10-08T21:37:01.031Z,99966.56
2022-10-08T21:40:03.883Z,99965.47
2022-10-08T21:43:06.763Z,99966.00
2022-10-08T21:46:11.775Z,99960.44
2022-10-08T21:49:15.743Z,99951.00
2022-10-08T21:52:18.401Z,99950.41
2022-10-08T21:55:21.154Z,99955.16
2022-10-08T21:58:23.812Z,99948.25
2022-10-08T22:01:28.777Z,99960.97
2022-10-08T22:04:31.399Z,99947.31
2022-10-08T22:07:34.139Z,99949.19
2022-10-08T22:10:38.102Z,99949.03
2022-10-08T22:13:41.096Z,99947.47
2022-10-08T22:16:45.464Z,99938.44
2022-10-08T22:19:48.236Z,99946.25
2022-10-08T22:22:51.088Z,99936.41
2022-10-08T22:25:54.642Z,99939.78
2022-10-08T22:28:57.244Z,99935.66
2022-10-08T22:32:01.298Z,99927.72
2022-10-08T22:35:04.031Z,99931.47
2022-10-08T22:38:06.764Z,99930.31
2022-10-08T22:41:11.037Z,99929.38
2022-10-08T22:44:13.735Z,99930.16
2022-10-08T22:47:17.699Z,99921.72
2022-10-08T22:50:20.404Z,99921.13
2022-10-08T22:53:23.051Z,99922.28
2022-10-08T22:56:27.169Z,99916.91
2022-10-08T22:59:30.500Z,99923.81
2022-10-08T23:02:34.624Z,99914.06
2022-10-08T23:05:37.315Z,99912.25
2022-10-08T23:08:40.072Z,99906.06
2022-10-08T23:11:42.839Z,99907.81
2022-10-08T23:14:46.159Z,99910.44
2022-10-08T23:17:50.244Z,99909.13
2022-10-08T23:20:52.836Z,99898.03
2022-10-08T23:23:55.903Z,99903.91
2022-10-08T23:26:58.525Z,99899.22
2022-10-08T23:30:01.814Z,99903.22
2022-10-08T23:33:05.871Z,99893.34
2022-10-08T23:36:09.550Z,99893.78
2022-10-08T23:39:14.601Z,99895.50
2022-10-08T23:42:17.351Z,99890.66
2022-10-08T23:45:20.013Z,99892.22
2022-10-08T23:48:24.072Z,99887.69
2022-10-08T23:51:28.149Z,99884.91
2022-10-08T23:54:30.816Z,99879.66
2022-10-08T23:57:33.500Z,99877.97
